3TS3 weather

J-D Ranch Airport
Alvin, Texas, United States

Public forecast

Using degrees Fahrenheit for public forecast. Weather courtesy of forecast.io.

Closest aviation weather report (METAR) to J-D Ranch Airport

Closest report is Pearland Regional Airport, 9.2 nm (17.0 km) NNE. Retrieved 2020/08/05 23:53 UTC (1 hour ago):

KLVJ 052353Z AUTO 20005KT 10SM CLR 33/19 A2994 RMK AO2 SLP137 T03330189 10350 20333 55011

Closest aviation forecast (TAF) to J-D Ranch Airport

Closest forecast is Ellington Airport, 15.6 nm (28.8 km) NNE. Retrieved 2020/08/05 20:27 UTC (4 hours ago):

TAF KEFD 052000Z 0520/0702 17006KT 9999 FEW060 SCT070 QNH2991INS BECMG 0619/0620 19006KT 8000 -SHRA BKN050 QNH2993INS TEMPO 0620/0623 VRB15G25KT 6000 -TSRA BKN035CB BECMG 0622/0623 14009KT 9999 NSW FEW060 QNH2993INS TX34/0619Z TN25/0612Z